Long Beach, CA (90808)

11:08 AM PST on December 18, 2014 (GMT -0800)
WildGold Bengals | Change Station
CLOSE
Current Station
Personal Weather Station
Location: Long Beach, CA
Elevation: 66 ft
Nearby Weather Stations

Elev 66 ft 33.82 °N, 118.12 °W | Updated 34 seconds ago

Overcast
Overcast
66.0 °F
Feels Like 66.0 °F
N
2.2
Wind Variable Wind from West
Gusts 2.7 mph

Today
High -- | Low -- °F
--% Chance of Precip.
Yesterday
High -- | Low -- °F
Precip. -- in
6:51 AM 4:46 PM
Waning Crescent, 13% visible
Pressure 30.20 in
Visibility 10.0 miles
Clouds Overcast 6500 ft
Dew Point 32 °F
Humidity 28%
Rainfall 0.00 in
Snow Depth Not available.
UV 1 out of 12
Pollen 3.10 out of 12
Air Quality Not available.
Flu Activity Not available.
METAR KLGB 181853Z 00000KT 10SM OVC065 16/09 A3020 RMK AO2 SLP225 T01560089

More Conditions Fewer Conditions

Pressure 30.20 in
Visibility 10.0 miles
Clouds Overcast 6500 ft
Dew Point 32 °F
Humidity 28%
Rainfall 0.00 in
Snow Depth Not available.
UV 1 out of 12
Pollen 3.10 out of 12
Air Quality Not available.
Flu Activity Not available.
METAR KLGB 181853Z 00000KT 10SM OVC065 16/09 A3020 RMK AO2 SLP225 T01560089

More Conditions Fewer Conditions

10-Day Weather Forecast

Almanac

Astronomy

Dec. 18, 2014 Rise Set
Actual Time
Civil Twilight
Nautical Twilight
Astronomical Twilight
Moon
Length of Visible Light
Length of Day
Tomorrow will be .
, % of the Moon is Illuminated

Today's Extremes

State Highs State Lows

Community

WunderPhotos

Upload Photos

1,778,982 photos uploaded!

WunderBlogs® & News

Nearby

Air Quality

  Air Quality AQ Index Pollutant
Not available.

Snow Depth

Station Depth Elevation

Earthquake Activity

City Distance Mag. Time & Date
Minimum magnitude displayed is 2.5.

Coastal Water Temperatures

Place Temperature

Nearby Weather Stations